Time;durP1;ratioP1;P1;durP2;ratioP2;P2;SDS_P1;SDS_P2;PMS_P1;PMS_P2;Temp;Humidity;BMP_temperature;BMP_pressure;BME280_temperature;BME280_humidity;BME280_pressure;Samples;Min_cycle;Max_cycle;Signal;HPM_P1;HPM_P2
2022/04/11 00:00:46;;;;;;;6.00;2.67;;;4.20;55.60;;;;;;5072350;28;20111;-72
2022/04/11 00:03:16;;;;;;;;;;;4.20;55.70;;;;;;5072257;28;20079;-72
2022/04/11 00:05:55;;;;;;;6.63;2.38;;;4.10;54.40;;;;;;5073204;28;19956;-72
2022/04/11 00:08:24;;;;;;;7.70;2.63;;;4.10;55.60;;;;;;5073671;28;20421;-73
2022/04/11 00:10:52;;;;;;;5.80;2.40;;;4.10;55.60;;;;;;5072282;28;20036;-72
2022/04/11 00:13:20;;;;;;;6.03;2.50;;;4.10;56.30;;;;;;5072408;28;20397;-72
2022/04/11 00:15:48;;;;;;;5.80;2.05;;;4.10;55.80;;;;;;5071605;28;20444;-73
2022/04/11 00:18:21;;;;;;;6.07;2.25;;;4.00;55.80;;;;;;5071395;28;20124;-73
2022/04/11 00:20:57;;;;;;;4.68;1.92;;;4.10;56.10;;;;;;5071843;28;20100;-72
2022/04/11 00:23:29;;;;;;;5.97;2.38;;;4.00;56.20;;;;;;5073390;28;20147;-72
2022/04/11 00:25:55;;;;;;;5.68;2.78;;;4.00;56.10;;;;;;5071635;28;20036;-72
2022/04/11 00:28:21;;;;;;;9.52;3.85;;;3.90;56.20;;;;;;5055201;28;20025;-73
2022/04/11 00:30:53;;;;;;;8.77;3.75;;;3.90;56.10;;;;;;5072620;28;20078;-72
2022/04/11 00:33:40;;;;;;;10.90;4.60;;;3.90;56.30;;;;;;5054239;28;20497;-72
2022/04/11 00:36:19;;;;;;;13.30;6.15;;;3.90;56.20;;;;;;5071642;28;20037;-72
2022/04/11 00:39:03;;;;;;;14.30;7.15;;;3.80;56.00;;;;;;5071620;28;20539;-72
2022/04/11 00:41:48;;;;;;;14.82;6.10;;;3.80;56.20;;;;;;5072794;28;20429;-71
2022/04/11 00:44:40;;;;;;;21.88;10.70;;;3.70;56.20;;;;;;5073340;28;20036;-72
2022/04/11 00:47:12;;;;;;;14.88;7.68;;;3.70;56.00;;;;;;5070291;28;20098;-72
2022/04/11 00:49:38;;;;;;;14.63;7.60;;;3.70;55.50;;;;;;5071722;28;20493;-72
2022/04/11 00:52:10;;;;;;;14.45;7.30;;;3.70;56.30;;;;;;5071488;28;20370;-72
2022/04/11 00:54:41;;;;;;;16.02;8.20;;;3.60;56.00;;;;;;5071712;28;20043;-72
2022/04/11 00:57:15;;;;;;;19.10;9.85;;;3.70;56.10;;;;;;5039126;28;20033;-72
2022/04/11 00:59:44;;;;;;;19.90;8.40;;;3.60;56.20;;;;;;5071658;28;20044;-72
2022/04/11 01:02:18;;;;;;;13.45;7.38;;;3.60;56.50;;;;;;5071659;28;20068;-72
2022/04/11 01:04:44;;;;;;;13.98;7.28;;;3.40;56.70;;;;;;5071568;28;20033;-72
2022/04/11 01:07:13;;;;;;;14.73;6.88;;;3.40;56.80;;;;;;5071109;28;20040;-71
2022/04/11 01:09:42;;;;;;;12.77;6.10;;;3.30;56.80;;;;;;5071444;28;20101;-71
2022/04/11 01:12:08;;;;;;;13.73;7.05;;;3.40;56.00;;;;;;5054004;28;20040;-72
2022/04/11 01:14:43;;;;;;;17.33;8.10;;;3.40;56.20;;;;;;5071397;28;20056;-72
2022/04/11 01:17:34;;;;;;;13.95;6.93;;;3.50;56.50;;;;;;5070319;28;20032;-72
2022/04/11 01:20:25;;;;;;;16.45;7.28;;;3.50;56.10;;;;;;5072636;28;20063;-72
2022/04/11 01:22:56;;;;;;;16.13;7.00;;;3.60;56.10;;;;;;5073313;28;20366;-72
2022/04/11 01:25:24;;;;;;;16.60;7.22;;;3.60;55.90;;;;;;5054014;28;20044;-72
2022/04/11 01:27:58;;;;;;;16.83;7.43;;;3.60;56.00;;;;;;5072718;28;20101;-72
2022/04/11 01:30:24;;;;;;;18.38;8.02;;;3.60;56.20;;;;;;5070875;28;20078;-72
2022/04/11 01:32:50;;;;;;;12.05;5.90;;;3.60;56.20;;;;;;5070584;28;20150;-72
2022/04/11 01:35:26;;;;;;;12.95;5.60;;;3.60;56.20;;;;;;5071609;28;20067;-72
2022/04/11 01:38:08;;;;;;;12.65;5.63;;;3.60;56.40;;;;;;5071412;28;20041;-73
2022/04/11 01:40:36;;;;;;;13.57;5.20;;;3.50;56.60;;;;;;5054713;28;20037;-72
2022/04/11 01:43:23;;;;;;;11.77;5.10;;;3.50;56.50;;;;;;5071143;28;20037;-72
2022/04/11 01:45:58;;;;;;;13.43;5.18;;;3.50;56.70;;;;;;5070551;28;20033;-72
2022/04/11 01:48:26;;;;;;;12.63;4.97;;;3.60;56.60;;;;;;5036939;28;20098;-72
2022/04/11 01:51:12;;;;;;;11.00;4.90;;;3.60;56.60;;;;;;5042880;28;20074;-71
2022/04/11 01:54:05;;;;;;;11.38;4.78;;;3.60;56.60;;;;;;5058284;28;20112;-72
2022/04/11 01:56:51;;;;;;;11.88;5.35;;;3.60;56.20;;;;;;5075939;28;20040;-72
2022/04/11 01:59:22;;;;;;;14.10;5.70;;;3.60;57.10;;;;;;5075024;28;20041;-72
2022/04/11 02:01:48;;;;;;;12.18;5.35;;;3.70;56.90;;;;;;5057768;28;20548;-72
2022/04/11 02:04:23;;;;;;;8.75;4.72;;;3.70;56.90;;;;;;5057368;28;20374;-72
2022/04/11 02:07:14;;;;;;;10.23;5.18;;;3.70;56.90;;;;;;5074446;28;20123;-72
2022/04/11 02:10:00;;;;;;;16.60;6.63;;;3.80;56.90;;;;;;5076021;28;20043;-72
2022/04/11 02:12:26;;;;;;;12.25;5.68;;;3.80;56.70;;;;;;5073404;28;20432;-72
2022/04/11 02:14:57;;;;;;;15.43;6.90;;;3.90;56.60;;;;;;5058108;28;20037;-72
2022/04/11 02:17:34;;;;;;;16.40;6.22;;;3.90;56.50;;;;;;5075397;28;20044;-72
2022/04/11 02:20:18;;;;;;;13.63;7.25;;;3.90;56.60;;;;;;5074788;28;20417;-72
2022/04/11 02:23:24;;;;;;;16.80;7.75;;;4.00;56.70;;;;;;5041566;28;20449;-72
2022/04/11 02:25:51;;;;;;;14.18;6.97;;;4.00;56.50;;;;;;5073937;28;20047;-72
2022/04/11 02:28:41;;;;;;;15.90;7.32;;;4.00;56.40;;;;;;5057678;28;20067;-72
2022/04/11 02:31:08;;;;;;;15.93;7.80;;;4.00;56.50;;;;;;5074870;28;20051;-72
2022/04/11 02:33:45;;;;;;;13.60;6.20;;;4.00;56.60;;;;;;5056524;28;20083;-72
2022/04/11 02:36:30;;;;;;;14.27;7.50;;;4.00;56.70;;;;;;5075018;28;20516;-72
2022/04/11 02:38:56;;;;;;;14.05;6.65;;;4.00;56.90;;;;;;5075461;28;20036;-72
2022/04/11 02:41:25;;;;;;;13.10;6.93;;;4.00;56.70;;;;;;5073711;28;20036;-71
2022/04/11 02:44:24;;;;;;;20.92;10.23;;;4.00;56.80;;;;;;5074578;28;20481;-72
2022/04/11 02:46:50;;;;;;;34.13;16.30;;;4.10;57.10;;;;;;5073451;28;20036;-72
2022/04/11 02:49:16;;;;;;;29.02;15.02;;;4.10;56.90;;;;;;5074755;28;20086;-72
2022/04/11 02:51:50;;;;;;;22.10;10.93;;;4.10;56.80;;;;;;5073625;28;20041;-72
2022/04/11 02:54:45;;;;;;;17.75;8.75;;;4.10;56.80;;;;;;5073873;28;20135;-72
2022/04/11 02:57:11;;;;;;;9.80;5.78;;;4.20;57.00;;;;;;5071216;28;20059;-72
2022/04/11 02:59:38;;;;;;;13.00;6.75;;;4.10;57.00;;;;;;5057088;28;20124;-72
2022/04/11 03:02:08;;;;;;;14.70;7.32;;;4.10;57.20;;;;;;5072909;28;20094;-72
2022/04/11 03:04:37;;;;;;;13.23;6.30;;;4.10;57.30;;;;;;5072871;28;20044;-72
2022/04/11 03:07:03;;;;;;;19.40;9.27;;;4.10;57.20;;;;;;5074352;28;20474;-72
2022/04/11 03:10:13;;;;;;;25.00;11.23;;;4.20;57.20;;;;;;5073803;28;20040;-72
2022/04/11 03:12:44;;;;;;;17.63;7.75;;;4.20;57.10;;;;;;5073454;28;20041;-72
2022/04/11 03:15:19;;;;;;;12.38;5.32;;;4.20;57.10;;;;;;5074286;28;20037;-72
2022/04/11 03:17:55;;;;;;;14.98;6.15;;;4.20;57.20;;;;;;5075110;28;20041;-72
2022/04/11 03:20:21;;;;;;;13.77;6.88;;;4.20;57.40;;;;;;5072158;28;20037;-72
2022/04/11 03:22:47;;;;;;;11.48;6.07;;;4.20;57.40;;;;;;5056560;28;20037;-72
2022/04/11 03:25:14;;;;;;;13.20;6.22;;;4.20;57.30;;;;;;5074138;28;20032;-72
2022/04/11 03:27:49;;;;;;;13.50;6.80;;;4.30;57.30;;;;;;5074357;28;20064;-72
2022/04/11 03:30:15;;;;;;;11.55;5.20;;;4.30;57.50;;;;;;5072617;28;20115;-73
2022/04/11 03:32:44;;;;;;;11.52;4.65;;;4.30;57.30;;;;;;5075033;28;20448;-72
2022/04/11 03:35:10;;;;;;;8.85;4.63;;;4.40;58.10;;;;;;5073048;28;20071;-72
2022/04/11 03:37:37;;;;;;;9.30;5.03;;;4.40;57.40;;;;;;5056468;28;20047;-72
2022/04/11 03:40:17;;;;;;;13.60;5.57;;;4.40;57.40;;;;;;5072882;28;20048;-72
2022/04/11 03:42:43;;;;;;;10.63;5.18;;;4.40;57.50;;;;;;5074747;28;20086;-72
2022/04/11 03:45:11;;;;;;;10.98;5.55;;;4.40;57.50;;;;;;5071931;28;20509;-72
2022/04/11 03:47:41;;;;;;;9.43;4.97;;;4.40;57.50;;;;;;5074562;28;20051;-72
2022/04/11 03:50:27;;;;;;;11.98;6.38;;;4.40;57.00;;;;;;5071726;28;20072;-73
2022/04/11 03:52:53;;;;;;;12.38;7.30;;;4.40;57.80;;;;;;5074534;28;20036;-72
2022/04/11 03:55:22;;;;;;;10.48;6.40;;;4.40;57.80;;;;;;5055785;28;20512;-72
2022/04/11 03:58:13;;;;;;;13.15;6.53;;;4.30;58.00;;;;;;5056689;28;20098;-72
2022/04/11 04:00:40;;;;;;;15.13;6.45;;;4.30;58.20;;;;;;5073251;28;20517;-72
2022/04/11 04:03:28;;;;;;;11.60;6.07;;;4.20;58.10;;;;;;5072467;28;20051;-71
2022/04/11 04:06:04;;;;;;;14.00;7.22;;;4.30;58.40;;;;;;5072029;28;20040;-72
2022/04/11 04:08:31;;;;;;;18.80;9.00;;;4.30;58.20;;;;;;5072493;28;20033;-73
2022/04/11 04:10:57;;;;;;;18.52;7.45;;;4.30;58.10;;;;;;5071893;28;20440;-72
2022/04/11 04:13:23;;;;;;;15.20;8.30;;;4.30;58.10;;;;;;5071791;28;20033;-72
2022/04/11 04:15:49;;;;;;;13.85;6.78;;;4.30;58.00;;;;;;5054964;28;20039;-72
2022/04/11 04:18:34;;;;;;;10.98;5.55;;;4.30;58.00;;;;;;5055488;28;20039;-73
2022/04/11 04:21:44;;;;;;;10.02;5.47;;;4.30;58.10;;;;;;5073194;28;20044;-72
2022/04/11 04:24:22;;;;;;;10.88;5.68;;;4.30;58.10;;;;;;5059485;28;20036;-73
2022/04/11 04:27:05;;;;;;;12.63;6.43;;;4.20;57.70;;;;;;5071720;28;20059;-72
2022/04/11 04:29:31;;;;;;;11.80;6.93;;;4.20;58.40;;;;;;5038101;28;20052;-71
2022/04/11 04:31:57;;;;;;;13.43;5.82;;;4.20;57.70;;;;;;5071773;28;20245;-72
2022/04/11 04:34:30;;;;;;;12.45;6.05;;;4.20;58.20;;;;;;5072242;28;20056;-72
2022/04/11 04:37:04;;;;;;;12.75;5.75;;;4.20;58.40;;;;;;5071567;28;20067;-72
2022/04/11 04:39:31;;;;;;;9.25;4.82;;;4.20;58.70;;;;;;5071919;28;20037;-72
2022/04/11 04:42:00;;;;;;;9.52;4.55;;;4.30;58.70;;;;;;5054948;28;20511;-72
2022/04/11 04:44:52;;;;;;;15.85;5.28;;;4.20;59.50;;;;;;5073143;28;20509;-72
2022/04/11 04:47:20;;;;;;;13.52;5.65;;;4.20;58.70;;;;;;5071252;28;20501;-72
2022/04/11 04:49:51;;;;;;;12.95;7.53;;;4.30;58.50;;;;;;5070996;28;20124;-72
2022/04/11 04:52:29;;;;;;;15.48;6.80;;;4.30;58.50;;;;;;5072818;28;20048;-73
2022/04/11 04:54:55;;;;;;;14.05;7.93;;;4.30;58.60;;;;;;5071746;28;20033;-72
2022/04/11 04:57:32;;;;;;;11.88;6.68;;;4.30;58.80;;;;;;5071232;28;20460;-72
2022/04/11 05:00:10;;;;;;;10.80;5.45;;;4.30;58.80;;;;;;5054994;28;20465;-72
2022/04/11 05:03:02;;;;;;;36.20;18.60;;;4.30;58.70;;;;;;5073055;28;20028;-72
2022/04/11 05:05:37;;;;;;;40.33;20.63;;;4.30;58.70;;;;;;5073264;28;20059;-72
2022/04/11 05:08:05;;;;;;;36.33;19.08;;;4.30;58.50;;;;;;5054693;28;20045;-72
2022/04/11 05:10:36;;;;;;;23.33;11.07;;;4.40;57.80;;;;;;5070955;28;20102;-72
2022/04/11 05:13:03;;;;;;;16.73;8.35;;;4.40;58.40;;;;;;5073550;28;20135;-73
2022/04/11 05:15:32;;;;;;;26.63;13.38;;;4.40;58.40;;;;;;5054495;28;20044;-71
2022/04/11 05:17:58;;;;;;;21.67;11.88;;;4.40;58.60;;;;;;5072856;28;20043;-72
2022/04/11 05:20:40;;;;;;;26.90;11.90;;;4.40;58.60;;;;;;5052840;28;20111;-73
2022/04/11 05:23:06;;;;;;;21.95;11.70;;;4.40;58.60;;;;;;5054590;28;20049;-73
2022/04/11 05:25:32;;;;;;;;;;;4.40;58.70;;;;;;5054348;28;20077;-72
2022/04/11 05:27:59;;;;;;;17.13;8.27;;;4.50;58.20;;;;;;5054759;28;19924;-72
2022/04/11 05:30:25;;;;;;;16.17;8.63;;;4.60;58.20;;;;;;5070885;28;20455;-72
2022/04/11 05:32:55;;;;;;;19.95;10.35;;;4.70;58.10;;;;;;5071569;28;20473;-72
2022/04/11 05:35:27;;;;;;;18.10;9.95;;;4.90;57.80;;;;;;5069324;28;20057;-73
2022/04/11 05:38:01;;;;;;;16.33;9.75;;;5.10;57.30;;;;;;5072957;28;20024;-72
2022/04/11 05:40:29;;;;;;;20.67;10.63;;;5.20;57.60;;;;;;5071999;28;20047;-72
2022/04/11 05:43:06;;;;;;;23.10;10.93;;;5.30;57.80;;;;;;5071311;28;20032;-72
2022/04/11 05:45:36;;;;;;;17.02;9.55;;;5.30;58.20;;;;;;5070488;28;20055;-72
2022/04/11 05:48:16;;;;;;;18.52;9.43;;;5.30;58.30;;;;;;5054563;28;20060;-72
2022/04/11 05:51:14;;;;;;;21.65;11.93;;;5.40;58.20;;;;;;5071065;28;20076;-72
2022/04/11 05:53:41;;;;;;;18.83;9.73;;;5.50;58.20;;;;;;5071112;28;20041;-72
2022/04/11 05:56:10;;;;;;;15.85;8.75;;;5.60;58.10;;;;;;5070562;28;20044;-73
2022/04/11 05:58:37;;;;;;;16.02;9.02;;;5.70;58.30;;;;;;5071004;28;20036;-72
2022/04/11 06:01:03;;;;;;;14.85;8.52;;;5.80;58.20;;;;;;5070494;28;20040;-72
2022/04/11 06:03:29;;;;;;;12.07;6.22;;;5.80;58.10;;;;;;5070854;28;20040;-73
2022/04/11 06:05:57;;;;;;;12.70;6.32;;;5.70;58.50;;;;;;5069465;28;20119;-72
2022/04/11 06:08:43;;;;;;;10.88;6.00;;;5.70;58.80;;;;;;5071826;28;20478;-72
2022/04/11 06:11:22;;;;;;;12.57;7.20;;;5.80;58.90;;;;;;5070424;28;20032;-72
2022/04/11 06:13:54;;;;;;;13.38;7.38;;;6.00;58.50;;;;;;5072020;28;20438;-73
2022/04/11 06:16:37;;;;;;;12.57;7.50;;;6.10;58.30;;;;;;5071786;28;20033;-72
2022/04/11 06:19:22;;;;;;;15.80;8.35;;;6.20;58.30;;;;;;5070942;28;20029;-72
2022/04/11 06:21:55;;;;;;;13.38;7.88;;;6.40;57.70;;;;;;5069472;28;20469;-72
2022/04/11 06:24:28;;;;;;;14.88;8.13;;;6.60;57.40;;;;;;5072087;28;20036;-73
2022/04/11 06:27:20;;;;;;;13.75;7.82;;;6.70;57.20;;;;;;5071794;28;20037;-72
2022/04/11 06:29:56;;;;;;;14.00;7.78;;;6.80;57.40;;;;;;5053988;28;20123;-72
2022/04/11 06:32:43;;;;;;;14.73;7.40;;;6.90;57.30;;;;;;5070530;28;20448;-73
2022/04/11 06:35:30;;;;;;;15.75;8.50;;;7.30;56.80;;;;;;5069218;28;20139;-72
2022/04/11 06:37:56;;;;;;;12.30;7.05;;;7.50;56.20;;;;;;5074466;28;20033;-72
2022/04/11 06:40:39;;;;;;;13.02;6.78;;;7.60;56.00;;;;;;5073839;28;20094;-73
2022/04/11 06:43:11;;;;;;;13.25;7.03;;;7.60;56.10;;;;;;5074130;28;20032;-72
2022/04/11 06:45:39;;;;;;;11.70;6.72;;;7.70;55.50;;;;;;5073593;28;20047;-72
2022/04/11 06:48:09;;;;;;;11.98;6.07;;;7.80;56.10;;;;;;5074069;28;20040;-73
2022/04/11 06:50:44;;;;;;;12.35;6.57;;;7.70;55.60;;;;;;5073926;28;20032;-72
2022/04/11 06:53:28;;;;;;;11.13;5.80;;;7.60;56.50;;;;;;5043063;28;20071;-72
2022/04/11 06:55:56;;;;;;;11.40;5.70;;;7.60;56.90;;;;;;5074742;28;20036;-73
2022/04/11 06:58:30;;;;;;;11.07;6.07;;;7.50;56.80;;;;;;5075425;28;20509;-72
2022/04/11 07:00:56;;;;;;;12.02;6.00;;;7.50;57.30;;;;;;5072846;28;20108;-73
2022/04/11 07:03:56;;;;;;;10.68;5.22;;;7.50;57.20;;;;;;5057055;28;20032;-73
2022/04/11 07:06:25;;;;;;;11.52;6.00;;;7.60;57.30;;;;;;5056223;28;20051;-72
2022/04/11 07:08:54;;;;;;;10.23;4.70;;;7.70;57.20;;;;;;5057039;28;20045;-72
2022/04/11 07:11:20;;;;;;;12.52;6.18;;;7.80;56.80;;;;;;5073336;28;20504;-73
2022/04/11 07:13:46;;;;;;;8.75;4.65;;;8.00;55.70;;;;;;5073584;28;20028;-72
2022/04/11 07:16:12;;;;;;;10.52;4.88;;;8.30;55.90;;;;;;5056335;28;20048;-73
2022/04/11 07:18:38;;;;;;;9.23;4.68;;;8.60;55.60;;;;;;5073489;28;20100;-73
2022/04/11 07:21:06;;;;;;;9.57;4.40;;;8.90;55.90;;;;;;5071974;28;20045;-73
2022/04/11 07:23:32;;;;;;;9.07;4.35;;;9.30;55.30;;;;;;5073553;28;20037;-73
2022/04/11 07:26:04;;;;;;;9.48;4.85;;;9.70;55.20;;;;;;5056071;28;20044;-73
2022/04/11 07:28:30;;;;;;;10.05;4.65;;;10.40;54.60;;;;;;5074567;28;20048;-73
2022/04/11 07:31:15;;;;;;;8.18;4.28;;;11.00;54.40;;;;;;5074086;28;20043;-73
2022/04/11 07:33:41;;;;;;;8.63;3.92;;;11.40;53.60;;;;;;5073128;28;20136;-73
2022/04/11 07:36:07;;;;;;;8.68;4.07;;;11.70;52.50;;;;;;5070937;28;20051;-73
2022/04/11 07:38:34;;;;;;;;;;;11.90;52.20;;;;;;5073741;28;20041;-74
2022/04/11 07:41:01;;;;;;;6.47;3.40;;;12.40;53.70;;;;;;5072713;28;19923;-73
2022/04/11 07:43:28;;;;;;;9.50;3.55;;;12.80;50.60;;;;;;5073004;28;20039;-73
2022/04/11 07:46:05;;;;;;;9.15;3.38;;;13.30;49.80;;;;;;5072572;28;20063;-73
2022/04/11 07:48:32;;;;;;;7.25;3.22;;;13.80;48.40;;;;;;5070880;28;20120;-73
2022/04/11 07:51:07;;;;;;;9.40;3.95;;;14.20;47.50;;;;;;5071356;28;20036;-73
2022/04/11 07:53:37;;;;;;;10.00;4.13;;;15.00;46.50;;;;;;5072813;28;20311;-73
2022/04/11 07:56:05;;;;;;;7.70;3.85;;;15.70;44.90;;;;;;5069460;28;20044;-73
2022/04/11 07:58:38;;;;;;;7.90;3.35;;;16.50;43.50;;;;;;5055857;28;20036;-73
2022/04/11 08:01:16;;;;;;;8.63;3.13;;;16.90;42.20;;;;;;5056387;28;20032;-74
2022/04/11 08:03:47;;;;;;;7.35;3.03;;;17.50;40.50;;;;;;5057910;28;20060;-73
2022/04/11 08:06:14;;;;;;;6.55;3.25;;;18.00;38.60;;;;;;5071178;28;20032;-74
2022/04/11 08:08:48;;;;;;;6.80;2.42;;;18.80;37.90;;;;;;5073732;28;20067;-74
2022/04/11 08:11:21;;;;;;;7.10;2.83;;;19.30;35.30;;;;;;5088569;28;20036;-73
2022/04/11 08:13:50;;;;;;;5.45;2.45;;;20.10;35.20;;;;;;5072502;28;20070;-74
2022/04/11 08:16:16;;;;;;;5.30;2.55;;;20.60;33.40;;;;;;5071995;28;20066;-74
2022/04/11 08:18:48;;;;;;;;;;;21.10;31.60;;;;;;5072874;28;20044;-73
2022/04/11 08:21:44;;;;;;;5.68;2.20;;;21.60;34.00;;;;;;5071030;28;20002;-74
2022/04/11 08:24:28;;;;;;;7.50;2.38;;;22.00;31.10;;;;;;5069009;28;20119;-74
2022/04/11 08:26:54;;;;;;;4.72;2.10;;;22.60;28.70;;;;;;5071700;28;20614;-73
2022/04/11 08:29:25;;;;;;;;;;;23.30;27.50;;;;;;5072686;28;20032;-74
2022/04/11 08:32:09;;;;;;;5.97;1.80;;;23.60;29.20;;;;;;5071825;28;19916;-74
2022/04/11 08:34:35;;;;;;;4.43;1.75;;;23.80;24.00;;;;;;5071673;28;20551;-74
2022/04/11 08:37:24;;;;;;;;;;;24.50;24.80;;;;;;5072650;28;20377;-74
2022/04/11 08:40:10;;;;;;;4.22;1.95;;;25.00;25.70;;;;;;5072212;28;20030;-74
2022/04/11 08:42:43;;;;;;;6.67;2.97;;;25.40;22.90;;;;;;5071384;28;20040;-74
2022/04/11 08:45:33;;;;;;;4.97;2.17;;;25.50;22.40;;;;;;5071369;28;20429;-74
2022/04/11 08:48:32;;;;;;;5.60;2.42;;;26.00;22.80;;;;;;5073385;28;20043;-74
2022/04/11 08:51:40;;;;;;;4.10;1.98;;;26.40;21.70;;;;;;5070365;28;20040;-74
2022/04/11 08:54:17;;;;;;;5.15;1.90;;;27.00;21.10;;;;;;5072940;28;20082;-74
2022/04/11 08:57:09;;;;;;;7.32;3.30;;;27.30;20.60;;;;;;5071369;28;20036;-74
2022/04/11 08:59:37;;;;;;;7.47;4.00;;;27.50;19.40;;;;;;5071315;28;20036;-74
2022/04/11 09:02:45;;;;;;;6.88;2.40;;;27.80;18.30;;;;;;5071337;28;20056;-73
2022/04/11 09:05:18;;;;;;;5.25;2.20;;;28.10;18.00;;;;;;5071089;28;20516;-74
2022/04/11 09:08:13;;;;;;;5.75;2.72;;;28.40;16.50;;;;;;5051847;28;20033;-74
2022/04/11 09:10:52;;;;;;;5.53;2.53;;;28.80;17.20;;;;;;5050860;28;20099;-74
2022/04/11 09:13:44;;;;;;;4.47;2.35;;;29.40;16.80;;;;;;5051510;28;20040;-74
2022/04/11 09:16:19;;;;;;;4.00;1.80;;;29.70;16.80;;;;;;5051897;28;20045;-74
2022/04/11 09:19:18;;;;;;;7.30;2.33;;;30.20;15.90;;;;;;5051297;28;20063;-74
2022/04/11 09:22:04;;;;;;;6.05;2.53;;;30.50;15.50;;;;;;5069852;28;20028;-74
2022/04/11 09:24:39;;;;;;;3.72;1.73;;;31.30;14.80;;;;;;5071393;28;20032;-74
2022/04/11 09:27:30;;;;;;;6.65;2.92;;;30.90;14.10;;;;;;5071080;28;20048;-74
2022/04/11 09:31:00;;;;;;;5.75;2.33;;;31.40;14.70;;;;;;5072551;28;20044;-74
2022/04/11 09:33:26;;;;;;;7.00;2.38;;;31.90;14.20;;;;;;5072376;28;20505;-74
2022/04/11 09:36:20;;;;;;;3.78;1.60;;;32.50;13.80;;;;;;5070632;28;20052;-74
2022/04/11 09:39:00;;;;;;;4.07;1.55;;;33.00;13.80;;;;;;5072443;28;20056;-74
2022/04/11 09:41:34;;;;;;;4.10;1.38;;;32.60;11.80;;;;;;5070871;28;20143;-74
2022/04/11 09:44:45;;;;;;;3.63;1.10;;;32.40;12.20;;;;;;5054983;28;20036;-74
2022/04/11 09:47:40;;;;;;;2.45;1.25;;;32.40;12.60;;;;;;5070544;28;20089;-74
2022/04/11 09:50:16;;;;;;;3.75;1.63;;;32.80;12.20;;;;;;5054450;28;20061;-74
2022/04/11 09:52:44;;;;;;;4.97;2.00;;;33.30;11.40;;;;;;5070414;28;20041;-74
2022/04/11 09:55:11;;;;;;;4.55;1.73;;;34.30;10.90;;;;;;5070434;28;20409;-74
2022/04/11 09:58:12;;;;;;;4.03;1.80;;;34.40;10.00;;;;;;5071117;28;20439;-74
2022/04/11 10:00:47;;;;;;;4.03;1.50;;;34.20;10.60;;;;;;5071747;28;20064;-74
2022/04/11 10:03:33;;;;;;;3.72;1.58;;;33.90;9.80;;;;;;5054773;28;20047;-74
2022/04/11 10:06:03;;;;;;;4.35;1.40;;;34.20;10.10;;;;;;5070380;28;20047;-74
2022/04/11 10:08:50;;;;;;;4.50;2.10;;;35.20;10.40;;;;;;5070227;28;20045;-74
2022/04/11 10:11:21;;;;;;;4.00;1.45;;;36.20;9.70;;;;;;5070756;28;20108;-74
2022/04/11 10:13:55;;;;;;;4.03;1.90;;;36.90;9.50;;;;;;5057944;28;20048;-74
2022/04/11 10:16:46;;;;;;;4.65;1.60;;;37.60;9.10;;;;;;5074360;28;20094;-74
2022/04/11 10:19:13;;;;;;;5.70;2.40;;;38.10;9.20;;;;;;5074667;28;20086;-74
2022/04/11 10:22:14;;;;;;;4.35;1.25;;;38.10;8.00;;;;;;5073339;28;20042;-74
2022/04/11 10:25:20;;;;;;;3.25;1.48;;;38.50;8.00;;;;;;5075774;28;20493;-73
2022/04/11 10:31:20;;;;;;;3.78;1.20;;;38.70;8.10;;;;;;5075421;28;20036;-74
2022/04/11 10:34:06;;;;;;;2.08;1.08;;;38.10;8.60;;;;;;5074998;28;20036;-74
2022/04/11 10:37:16;;;;;;;4.05;1.40;;;36.70;8.30;;;;;;5075297;28;20036;-73
2022/04/11 10:39:50;;;;;;;3.35;1.42;;;37.60;8.50;;;;;;5058465;28;20051;-73
2022/04/11 10:42:36;;;;;;;3.25;1.20;;;39.20;8.10;;;;;;5074995;28;20040;-73
2022/04/11 10:45:45;;;;;;;3.40;1.30;;;40.00;7.60;;;;;;5074129;28;20486;-73
2022/04/11 10:49:11;;;;;;;3.38;1.33;;;40.00;8.00;;;;;;5075178;28;20040;-73
2022/04/11 10:52:08;;;;;;;4.32;1.27;;;40.40;7.60;;;;;;5075092;28;20037;-74
2022/04/11 10:54:55;;;;;;;2.88;1.38;;;39.70;7.00;;;;;;5073934;28;20044;-74
2022/04/11 10:58:04;;;;;;;3.00;1.23;;;39.90;7.00;;;;;;5073662;28;20055;-74
2022/04/11 11:00:53;;;;;;;6.53;2.72;;;40.70;7.00;;;;;;5074643;28;20059;-74
2022/04/11 11:03:33;;;;;;;2.60;1.10;;;41.70;6.20;;;;;;5075137;28;20032;-73
2022/04/11 11:06:23;;;;;;;3.55;1.10;;;42.10;5.70;;;;;;5056942;28;20082;-74
2022/04/11 11:08:53;;;;;;;2.05;1.00;;;43.00;6.10;;;;;;5056481;28;20036;-73
2022/04/11 11:11:40;;;;;;;4.45;1.30;;;43.10;6.00;;;;;;5056614;28;20542;-74
2022/04/11 11:14:45;;;;;;;5.15;1.92;;;43.90;5.40;;;;;;5074863;28;20032;-73
2022/04/11 11:17:14;;;;;;;5.97;2.83;;;43.90;5.90;;;;;;5073350;28;20481;-74
2022/04/11 11:20:20;;;;;;;1.83;1.20;;;44.10;6.10;;;;;;5073592;28;20036;-73
2022/04/11 11:23:25;;;;;;;2.57;1.10;;;42.30;6.00;;;;;;5072454;28;20401;-74
2022/04/11 11:26:20;;;;;;;2.50;1.15;;;41.80;6.20;;;;;;5074076;28;20032;-74
2022/04/11 11:28:53;;;;;;;2.50;1.00;;;43.00;7.00;;;;;;5073207;28;20056;-74
2022/04/11 11:32:00;;;;;;;4.63;1.60;;;43.20;5.40;;;;;;5074202;28;20440;-74
2022/04/11 11:34:53;;;;;;;5.38;1.92;;;44.00;5.50;;;;;;5072079;28;20521;-74
2022/04/11 11:37:28;;;;;;;2.90;1.25;;;42.90;5.40;;;;;;5071997;28;20111;-74
2022/04/11 11:39:58;;;;;;;3.67;1.30;;;43.50;5.80;;;;;;5074427;28;20032;-73
2022/04/11 11:42:34;;;;;;;3.10;1.15;;;44.50;5.90;;;;;;5072698;28;20044;-74
2022/04/11 11:45:05;;;;;;;6.68;1.80;;;44.20;5.60;;;;;;5073067;28;20047;-74
2022/04/11 11:47:58;;;;;;;1.85;1.00;;;45.00;5.40;;;;;;5073238;28;20485;-73
2022/04/11 11:50:34;;;;;;;3.38;1.10;;;44.40;5.90;;;;;;5055813;28;20450;-73
2022/04/11 11:53:42;;;;;;;2.85;1.30;;;44.60;5.40;;;;;;5055637;28;20036;-73
2022/04/11 11:56:12;;;;;;;2.33;1.23;;;45.10;5.30;;;;;;5055753;28;20512;-73
2022/04/11 11:59:22;;;;;;;2.88;1.20;;;46.70;5.10;;;;;;5072743;28;20117;-73
2022/04/11 12:05:31;;;;;;;6.05;2.47;;;45.60;4.90;;;;;;5072493;28;20043;-73
2022/04/11 12:08:17;;;;;;;3.90;1.67;;;46.30;5.10;;;;;;5071938;28;20032;-73
2022/04/11 12:11:03;;;;;;;3.22;1.30;;;46.40;4.90;;;;;;5073116;28;20098;-73
2022/04/11 12:13:49;;;;;;;2.38;1.20;;;46.50;4.60;;;;;;5073224;28;20457;-73
2022/04/11 12:16:23;;;;;;;2.88;1.27;;;47.70;4.30;;;;;;5072032;28;20115;-73
2022/04/11 12:19:14;;;;;;;4.18;1.27;;;47.60;3.70;;;;;;5073242;28;20037;-73
2022/04/11 12:21:47;;;;;;;4.70;1.45;;;47.70;4.60;;;;;;5071894;28;20028;-73
2022/04/11 12:24:16;;;;;;;3.47;1.70;;;47.20;4.80;;;;;;5071379;28;20037;-73
2022/04/11 12:27:01;;;;;;;3.45;1.73;;;46.90;3.90;;;;;;5071743;28;20111;-74
2022/04/11 12:29:54;;;;;;;4.97;2.33;;;46.70;4.20;;;;;;5073380;28;20501;-73
2022/04/11 12:32:30;;;;;;;2.50;1.02;;;46.70;4.40;;;;;;5071774;28;20037;-73
2022/04/11 12:35:31;;;;;;;2.33;1.23;;;45.00;4.70;;;;;;5071420;28;20056;-73
2022/04/11 12:38:08;;;;;;;4.35;1.45;;;44.90;4.70;;;;;;5071338;28;20037;-74
2022/04/11 12:40:54;;;;;;;1.92;1.10;;;44.80;5.10;;;;;;5071564;28;20449;-73
2022/04/11 12:43:38;;;;;;;5.18;2.22;;;45.30;5.30;;;;;;5073188;28;20041;-73
2022/04/11 12:46:28;;;;;;;2.72;1.20;;;45.40;4.80;;;;;;5071572;28;20043;-73
2022/04/11 12:49:16;;;;;;;3.65;1.90;;;44.50;5.30;;;;;;5073073;28;20044;-73
2022/04/11 12:52:01;;;;;;;5.15;2.03;;;44.70;5.30;;;;;;5071150;28;20029;-73
2022/04/11 12:55:07;;;;;;;2.85;1.27;;;46.20;5.00;;;;;;5072224;28;20089;-73
2022/04/11 12:57:34;;;;;;;3.28;1.60;;;45.40;5.20;;;;;;5073271;28;20039;-74
2022/04/11 13:00:29;;;;;;;1.85;1.35;;;45.50;4.50;;;;;;5053731;28;20041;-73
2022/04/11 13:03:15;;;;;;;2.83;1.20;;;44.80;5.00;;;;;;5071839;28;20367;-74
2022/04/11 13:05:59;;;;;;;1.30;0.93;;;43.70;5.60;;;;;;5072329;28;20112;-73
2022/04/11 13:08:39;;;;;;;5.13;1.50;;;44.10;4.90;;;;;;5071419;28;20383;-74
2022/04/11 13:11:06;;;;;;;2.85;1.17;;;45.60;4.90;;;;;;5071211;28;20478;-73
2022/04/11 13:13:41;;;;;;;5.82;2.83;;;46.20;4.90;;;;;;5071416;28;20037;-73
2022/04/11 13:19:02;;;;;;;5.68;1.10;;;46.10;5.10;;;;;;5057722;28;20162;-73
2022/04/11 13:21:36;;;;;;;2.60;1.25;;;45.00;5.00;;;;;;5070760;28;20053;-74
2022/04/11 13:24:02;;;;;;;3.42;1.38;;;44.20;4.40;;;;;;5071670;28;20040;-73
2022/04/11 13:26:28;;;;;;;2.97;1.20;;;44.10;5.10;;;;;;5070934;28;20516;-73
2022/04/11 13:28:55;;;;;;;2.40;1.17;;;43.30;5.20;;;;;;5072576;28;20382;-74
2022/04/11 13:31:31;;;;;;;5.22;2.92;;;44.20;4.80;;;;;;5070862;28;20039;-73
2022/04/11 13:34:16;;;;;;;8.85;5.63;;;44.70;4.90;;;;;;5071877;28;20562;-73
2022/04/11 13:36:57;;;;;;;10.32;9.07;;;46.00;5.30;;;;;;5070391;28;20330;-74
2022/04/11 13:39:49;;;;;;;3.53;1.52;;;45.90;4.60;;;;;;5071895;28;20481;-73
2022/04/11 13:42:23;;;;;;;3.00;1.40;;;45.70;5.00;;;;;;5070946;28;20078;-74
2022/04/11 13:44:49;;;;;;;2.60;1.30;;;44.70;4.90;;;;;;5071365;28;20059;-74
2022/04/11 13:47:25;;;;;;;1.65;0.90;;;45.10;6.00;;;;;;5074547;28;20462;-73
2022/04/11 13:49:53;;;;;;;1.75;1.02;;;45.00;5.40;;;;;;5076574;28;20033;-73
2022/04/11 13:52:42;;;;;;;2.75;1.40;;;45.70;5.00;;;;;;5074915;28;20040;-74
2022/04/11 13:55:11;;;;;;;2.63;1.00;;;46.40;5.40;;;;;;5057328;28;20040;-74